createdAt,value
2019-03-19T00:00:55.467Z,15.07
2019-03-19T00:03:36.681Z,19.27
2019-03-19T00:06:09.346Z,26.20
2019-03-19T00:08:38.762Z,19.37
2019-03-19T00:11:11.229Z,26.13
2019-03-19T00:13:42.196Z,15.90
2019-03-19T00:16:16.524Z,14.30
2019-03-19T00:18:49.504Z,15.07
2019-03-19T00:21:18.901Z,16.20
2019-03-19T00:23:53.470Z,17.33
2019-03-19T00:26:22.406Z,26.73
2019-03-19T00:28:51.775Z,18.27
2019-03-19T00:31:21.101Z,20.97
2019-03-19T00:33:50.417Z,14.57
2019-03-19T00:36:20.684Z,21.17
2019-03-19T00:38:50.000Z,22.67
2019-03-19T00:41:19.301Z,18.10
2019-03-19T00:43:48.623Z,18.13
2019-03-19T00:46:17.950Z,17.83
2019-03-19T00:48:47.259Z,15.47
2019-03-19T00:51:16.577Z,18.70
2019-03-19T00:53:45.904Z,15.23
2019-03-19T00:56:15.215Z,11.93
2019-03-19T00:58:44.527Z,24.63
2019-03-19T01:01:13.841Z,14.70
2019-03-19T01:03:43.152Z,21.07
2019-03-19T01:06:12.500Z,15.63
2019-03-19T01:08:41.811Z,25.73
2019-03-19T01:11:11.120Z,14.27
2019-03-19T01:13:40.433Z,23.90
2019-03-19T01:16:09.740Z,18.93
2019-03-19T01:18:39.057Z,19.80
2019-03-19T01:21:08.361Z,21.10
2019-03-19T01:23:37.693Z,10.37
2019-03-19T01:26:07.005Z,15.93
2019-03-19T01:28:36.327Z,22.67
2019-03-19T01:31:05.669Z,21.33
2019-03-19T01:33:34.981Z,20.80
2019-03-19T01:36:04.304Z,25.50
2019-03-19T01:38:33.615Z,24.10
2019-03-19T01:41:02.924Z,12.63
2019-03-19T01:43:32.237Z,18.07
2019-03-19T01:46:01.556Z,19.87
2019-03-19T01:48:30.874Z,16.47
2019-03-19T01:51:00.258Z,16.83
2019-03-19T01:53:29.572Z,14.27
2019-03-19T01:56:05.093Z,19.80
2019-03-19T01:58:29.942Z,15.60
2019-03-19T02:01:02.528Z,14.77
2019-03-19T02:03:31.855Z,15.33
2019-03-19T02:06:01.240Z,18.37
2019-03-19T02:08:30.577Z,20.20
2019-03-19T02:10:59.979Z,19.03
2019-03-19T02:13:30.846Z,21.80
2019-03-19T02:16:00.159Z,20.80
2019-03-19T02:18:29.621Z,15.33
2019-03-19T02:20:58.981Z,20.67
2019-03-19T02:23:28.406Z,18.50
2019-03-19T02:25:57.732Z,18.90
2019-03-19T02:28:27.128Z,26.60
2019-03-19T02:30:56.471Z,19.77
2019-03-19T02:33:25.905Z,19.37
2019-03-19T02:35:56.912Z,21.43
2019-03-19T02:38:26.506Z,22.33
2019-03-19T02:40:55.865Z,23.03
2019-03-19T02:43:25.178Z,20.60
2019-03-19T02:45:54.551Z,18.90
2019-03-19T02:48:23.933Z,24.17
2019-03-19T02:50:53.413Z,27.97
2019-03-19T02:53:25.474Z,20.93
2019-03-19T02:55:54.821Z,20.03
2019-03-19T02:58:24.129Z,21.07
2019-03-19T03:00:53.447Z,19.40
2019-03-19T03:03:22.756Z,17.30
2019-03-19T03:05:53.048Z,11.03
2019-03-19T03:08:22.425Z,17.10
2019-03-19T03:10:51.741Z,21.97
2019-03-19T03:13:21.063Z,19.37
2019-03-19T03:15:50.421Z,18.33
2019-03-19T03:18:19.742Z,15.63
2019-03-19T03:20:49.108Z,16.43
2019-03-19T03:23:18.521Z,19.70
2019-03-19T03:25:47.938Z,18.33
2019-03-19T03:28:17.340Z,15.13
2019-03-19T03:30:46.682Z,16.77
2019-03-19T03:33:15.983Z,12.97
2019-03-19T03:35:45.384Z,16.77
2019-03-19T03:38:14.783Z,12.53
2019-03-19T03:40:44.195Z,26.80
2019-03-19T03:43:13.610Z,20.13
2019-03-19T03:45:42.958Z,17.33
2019-03-19T03:48:12.317Z,13.90
2019-03-19T03:50:41.644Z,17.87
2019-03-19T03:53:10.966Z,23.13
2019-03-19T03:55:40.296Z,25.63
2019-03-19T03:58:09.609Z,15.00
2019-03-19T04:00:38.919Z,20.57
2019-03-19T04:03:08.257Z,23.13
2019-03-19T04:05:37.569Z,20.30
2019-03-19T04:08:06.887Z,24.10
2019-03-19T04:10:36.201Z,15.13
2019-03-19T04:13:05.575Z,29.63
2019-03-19T04:15:34.897Z,27.43
2019-03-19T04:18:04.204Z,23.13
2019-03-19T04:20:33.528Z,18.83
2019-03-19T04:23:02.947Z,24.53
2019-03-19T04:25:32.275Z,21.03
2019-03-19T04:28:01.577Z,20.23
2019-03-19T04:30:30.884Z,22.30
2019-03-19T04:33:00.195Z,20.77
2019-03-19T04:35:29.509Z,23.43
2019-03-19T04:37:58.811Z,17.17
2019-03-19T04:40:28.129Z,18.47
2019-03-19T04:42:57.514Z,17.63
2019-03-19T04:45:26.852Z,17.40
2019-03-19T04:47:56.215Z,26.13
2019-03-19T04:50:25.547Z,24.03
2019-03-19T04:52:54.883Z,26.10
2019-03-19T04:55:24.183Z,21.03
2019-03-19T04:57:53.527Z,23.67
2019-03-19T05:00:22.828Z,19.00
2019-03-19T05:02:52.152Z,21.20
2019-03-19T05:05:21.471Z,21.43
2019-03-19T05:07:50.826Z,21.67
2019-03-19T05:10:20.260Z,17.97
2019-03-19T05:12:49.579Z,25.60
2019-03-19T05:15:18.901Z,29.40
2019-03-19T05:17:48.222Z,26.10
2019-03-19T05:20:19.084Z,20.80
2019-03-19T05:22:48.422Z,18.33
2019-03-19T05:25:17.720Z,19.97
2019-03-19T05:27:47.045Z,24.10
2019-03-19T05:30:20.619Z,27.70
2019-03-19T05:32:49.989Z,32.97
2019-03-19T05:35:19.288Z,24.63
2019-03-19T05:37:48.612Z,25.67
2019-03-19T05:40:18.276Z,24.57
2019-03-19T05:42:47.652Z,31.13
2019-03-19T05:45:17.051Z,30.40
2019-03-19T05:47:46.375Z,26.80
2019-03-19T05:50:21.415Z,23.30
2019-03-19T05:52:50.749Z,20.67
2019-03-19T05:55:20.053Z,17.87
2019-03-19T05:57:50.576Z,23.10
2019-03-19T06:00:21.700Z,23.67
2019-03-19T06:02:51.026Z,28.03
2019-03-19T06:05:21.270Z,26.37
2019-03-19T06:07:50.997Z,24.77
2019-03-19T06:10:20.323Z,26.53
2019-03-19T06:12:49.745Z,27.03
2019-03-19T06:15:19.119Z,14.00
2019-03-19T06:17:48.446Z,25.30
2019-03-19T06:20:23.042Z,22.57
2019-03-19T06:22:53.694Z,31.17
2019-03-19T06:25:23.112Z,26.47
2019-03-19T06:28:00.700Z,32.90
2019-03-19T06:30:33.328Z,19.03
2019-03-19T06:33:07.704Z,15.77
2019-03-19T06:35:40.393Z,21.00
2019-03-19T06:38:17.280Z,19.43
2019-03-19T06:40:56.150Z,22.93
2019-03-19T06:43:28.553Z,16.57
2019-03-19T06:46:05.089Z,20.63
2019-03-19T06:48:41.411Z,19.33
2019-03-19T06:51:16.904Z,24.77
2019-03-19T06:53:53.041Z,23.90
2019-03-19T06:56:22.661Z,17.40
2019-03-19T06:58:58.485Z,20.13
2019-03-19T07:01:35.107Z,19.27
2019-03-19T07:04:14.956Z,22.77
2019-03-19T07:06:47.531Z,22.90
2019-03-19T07:09:21.659Z,12.37
2019-03-19T07:11:53.856Z,19.77
2019-03-19T07:14:26.233Z,15.73
2019-03-19T07:16:59.528Z,18.10
2019-03-19T07:19:35.337Z,13.80
2019-03-19T07:22:08.277Z,16.10
2019-03-19T07:24:50.098Z,20.97
2019-03-19T07:27:17.004Z,20.10
2019-03-19T07:29:57.589Z,19.17
2019-03-19T07:32:28.606Z,22.37
2019-03-19T07:35:11.706Z,24.67
2019-03-19T07:37:42.917Z,20.20
2019-03-19T07:40:17.347Z,16.63
2019-03-19T07:42:54.470Z,16.40
2019-03-19T07:45:36.803Z,20.07
2019-03-19T07:48:10.072Z,15.90
2019-03-19T07:50:44.021Z,17.07
2019-03-19T07:53:19.209Z,18.47
2019-03-19T07:55:53.595Z,15.97
2019-03-19T07:58:35.982Z,18.90
2019-03-19T08:01:00.309Z,19.07
2019-03-19T08:03:29.696Z,19.37
2019-03-19T08:06:12.097Z,19.67
2019-03-19T08:08:47.691Z,19.03
2019-03-19T08:11:26.012Z,18.50
2019-03-19T08:13:57.179Z,16.63
2019-03-19T08:16:34.376Z,19.17
2019-03-19T08:19:09.363Z,14.53
2019-03-19T08:21:45.010Z,21.30
2019-03-19T08:24:17.922Z,17.60
2019-03-19T08:27:09.739Z,14.63
2019-03-19T08:29:41.879Z,22.97
2019-03-19T08:32:17.754Z,16.03
2019-03-19T08:34:51.607Z,16.37
2019-03-19T08:37:32.679Z,24.43
2019-03-19T08:40:00.352Z,28.87
2019-03-19T08:42:30.951Z,14.77
2019-03-19T08:45:06.873Z,19.50
2019-03-19T08:47:38.527Z,19.60
2019-03-19T08:50:22.994Z,22.50
2019-03-19T08:53:00.475Z,17.00
2019-03-19T08:55:33.406Z,15.53
2019-03-19T08:58:13.374Z,18.67
2019-03-19T09:00:42.867Z,20.63
2019-03-19T09:03:16.876Z,15.60
2019-03-19T09:05:59.849Z,14.13
2019-03-19T09:08:29.412Z,18.97
2019-03-19T09:10:58.933Z,18.57
2019-03-19T09:13:34.259Z,14.73
2019-03-19T09:16:06.269Z,11.77
2019-03-19T09:18:42.948Z,14.37
2019-03-19T09:21:15.147Z,15.90
2019-03-19T09:23:44.559Z,15.67
2019-03-19T09:26:13.880Z,9.20
2019-03-19T09:28:45.919Z,14.03
2019-03-19T09:31:16.750Z,15.83
2019-03-19T09:33:51.518Z,11.83
2019-03-19T09:36:23.565Z,10.90
2019-03-19T09:38:56.871Z,14.33
2019-03-19T09:41:35.007Z,13.13
2019-03-19T09:44:04.324Z,13.80
2019-03-19T09:46:34.693Z,14.37
2019-03-19T09:49:04.033Z,16.70
2019-03-19T09:51:36.440Z,9.73
2019-03-19T09:54:05.884Z,9.53
2019-03-19T09:56:38.222Z,14.90
2019-03-19T09:59:12.169Z,14.37
2019-03-19T10:01:44.384Z,13.33
2019-03-19T10:04:16.776Z,18.37
2019-03-19T10:06:47.780Z,6.67
2019-03-19T10:09:21.415Z,7.97
2019-03-19T10:11:56.476Z,12.73
2019-03-19T10:14:27.413Z,11.80
2019-03-19T10:16:59.294Z,5.20
2019-03-19T10:19:28.664Z,15.13
2019-03-19T10:22:01.141Z,6.10
2019-03-19T10:24:30.617Z,7.40
2019-03-19T10:27:01.566Z,7.37
2019-03-19T10:29:38.144Z,5.13
2019-03-19T10:32:02.007Z,7.70
2019-03-19T10:34:31.317Z,5.27
2019-03-19T10:37:00.617Z,8.63
2019-03-19T10:39:29.931Z,9.73
2019-03-19T10:41:59.237Z,8.63
2019-03-19T10:44:28.610Z,3.37
2019-03-19T10:46:57.942Z,10.77
2019-03-19T10:49:30.265Z,10.67
2019-03-19T10:51:59.683Z,4.00
2019-03-19T10:54:29.077Z,6.63
2019-03-19T10:56:58.400Z,8.87
2019-03-19T10:59:27.801Z,8.37
2019-03-19T11:01:57.100Z,9.73
2019-03-19T11:04:26.424Z,5.03
2019-03-19T11:06:55.732Z,9.43
2019-03-19T11:09:26.032Z,6.60
2019-03-19T11:11:55.340Z,7.07
2019-03-19T11:14:24.679Z,12.73
2019-03-19T11:16:53.994Z,5.57
2019-03-19T11:19:23.311Z,8.97
2019-03-19T11:21:56.712Z,8.50
2019-03-19T11:24:28.757Z,4.23
2019-03-19T11:26:59.707Z,6.20
2019-03-19T11:29:29.030Z,3.73
2019-03-19T11:31:58.341Z,5.13
2019-03-19T11:34:27.654Z,7.87
2019-03-19T11:36:58.246Z,12.17
2019-03-19T11:39:27.628Z,4.27
2019-03-19T11:41:56.941Z,6.53
2019-03-19T11:44:26.257Z,4.90
2019-03-19T11:46:55.583Z,6.23
2019-03-19T11:49:24.936Z,5.43
2019-03-19T11:51:54.308Z,6.03
2019-03-19T11:54:23.624Z,8.07
2019-03-19T11:56:52.943Z,9.83
2019-03-19T11:59:25.231Z,6.07
2019-03-19T12:01:53.260Z,7.63
2019-03-19T12:04:22.565Z,3.80
2019-03-19T12:06:51.891Z,7.10
2019-03-19T12:09:27.046Z,5.60
2019-03-19T12:11:56.377Z,7.83
2019-03-19T12:14:25.675Z,4.50
2019-03-19T12:16:55.093Z,5.07
2019-03-19T12:19:24.397Z,4.10
2019-03-19T12:21:53.713Z,3.60
2019-03-19T12:24:23.020Z,8.43
2019-03-19T12:26:52.332Z,8.23
2019-03-19T12:29:21.636Z,6.63
2019-03-19T12:31:50.953Z,8.60
2019-03-19T12:34:20.263Z,7.57
2019-03-19T12:36:49.577Z,6.43
2019-03-19T12:39:18.891Z,5.97
2019-03-19T12:41:48.611Z,6.17
2019-03-19T12:44:18.002Z,8.40
2019-03-19T12:46:47.314Z,9.07
2019-03-19T12:49:16.622Z,9.27
2019-03-19T12:51:46.003Z,7.03
2019-03-19T12:54:15.309Z,6.83
2019-03-19T12:56:44.662Z,7.30
2019-03-19T12:59:20.141Z,9.90
2019-03-19T13:01:44.985Z,6.20
2019-03-19T13:04:14.317Z,9.50
2019-03-19T13:06:43.625Z,9.07
2019-03-19T13:09:12.939Z,3.97
2019-03-19T13:11:42.261Z,4.77
2019-03-19T13:14:14.388Z,8.30
2019-03-19T13:16:43.697Z,6.57
2019-03-19T13:19:13.014Z,4.47
2019-03-19T13:21:42.338Z,6.17
2019-03-19T13:24:11.719Z,6.47
2019-03-19T13:26:41.124Z,6.20
2019-03-19T13:29:10.423Z,6.97
2019-03-19T13:31:43.199Z,8.13
2019-03-19T13:34:16.793Z,5.73
2019-03-19T13:36:46.104Z,6.50
2019-03-19T13:39:17.119Z,4.50
2019-03-19T13:41:48.450Z,6.07
2019-03-19T13:44:17.755Z,5.23
2019-03-19T13:46:47.073Z,5.23
2019-03-19T13:49:59.679Z,5.20
2019-03-19T13:52:27.760Z,8.10
2019-03-19T13:54:57.064Z,8.17
2019-03-19T13:59:09.120Z,6.27
2019-03-19T14:00:13.556Z,4.13
2019-03-19T14:02:45.747Z,8.43
2019-03-19T14:05:16.463Z,6.57
2019-03-19T14:07:45.912Z,6.60
2019-03-19T14:10:18.289Z,7.63
2019-03-19T14:12:47.842Z,7.53
2019-03-19T14:15:27.289Z,5.47
2019-03-19T14:17:56.613Z,7.27
2019-03-19T14:27:22.998Z,5.67
2019-03-19T14:30:38.337Z,3.90
2019-03-19T14:40:01.510Z,8.17
2019-03-19T14:45:59.830Z,7.13
2019-03-19T14:48:27.506Z,6.20
2019-03-19T14:51:05.896Z,8.33
2019-03-19T14:53:40.616Z,6.93
2019-03-19T14:56:10.012Z,7.87
2019-03-19T14:58:41.846Z,6.10
2019-03-19T15:01:19.355Z,7.83
2019-03-19T15:04:24.348Z,7.23
2019-03-19T15:06:59.995Z,7.60
2019-03-19T15:09:31.926Z,9.90
2019-03-19T15:12:07.391Z,4.23
2019-03-19T15:14:56.939Z,8.37
2019-03-19T15:17:36.010Z,6.60
2019-03-19T15:20:18.338Z,9.80
2019-03-19T15:22:47.895Z,7.17
2019-03-19T15:25:21.788Z,6.30
2019-03-19T15:28:24.442Z,5.73
2019-03-19T15:30:54.104Z,6.30
2019-03-19T15:33:37.667Z,5.20
2019-03-19T15:36:33.601Z,10.90
2019-03-19T15:41:49.875Z,5.73
2019-03-19T15:44:41.540Z,8.20
2019-03-19T15:53:40.583Z,5.40
2019-03-19T15:56:15.580Z,5.00
2019-03-19T15:59:17.141Z,3.17
2019-03-19T16:01:56.769Z,5.43
2019-03-19T16:04:30.907Z,4.93
2019-03-19T16:07:07.714Z,6.30
2019-03-19T16:09:51.881Z,5.43
2019-03-19T16:12:24.885Z,5.33
2019-03-19T16:15:42.942Z,7.50
2019-03-19T16:17:33.904Z,5.60
2019-03-19T16:20:04.776Z,8.10
2019-03-19T16:22:34.676Z,10.07
2019-03-19T16:25:07.009Z,7.07
2019-03-19T16:27:39.075Z,5.90
2019-03-19T16:30:22.003Z,5.60
2019-03-19T16:36:07.755Z,9.20
2019-03-19T16:39:02.983Z,8.50
2019-03-19T16:41:38.050Z,12.40
2019-03-19T16:44:07.404Z,9.83
2019-03-19T16:46:36.705Z,9.20
2019-03-19T16:49:06.034Z,12.47
2019-03-19T16:51:35.364Z,5.83
2019-03-19T16:54:04.789Z,5.83
2019-03-19T16:56:37.111Z,10.17
2019-03-19T16:59:12.586Z,10.23
2019-03-19T17:01:42.100Z,10.67
2019-03-19T17:04:20.192Z,6.43
2019-03-19T17:06:48.972Z,11.83
2019-03-19T17:16:29.042Z,7.47
2019-03-19T17:18:58.481Z,5.83
2019-03-19T17:21:29.396Z,8.47
2019-03-19T17:24:01.528Z,10.03
2019-03-19T17:26:31.005Z,7.43
2019-03-19T17:29:00.486Z,9.20
2019-03-19T17:31:31.511Z,6.57
2019-03-19T17:34:02.592Z,12.30
2019-03-19T17:36:38.114Z,9.53
2019-03-19T17:40:54.956Z,9.23
2019-03-19T17:41:53.567Z,21.00
2019-03-19T17:44:22.673Z,14.40
2019-03-19T17:46:51.964Z,5.80
2019-03-19T17:49:21.280Z,8.17
2019-03-19T17:51:50.593Z,11.60
2019-03-19T17:54:19.905Z,10.73
2019-03-19T17:56:50.874Z,8.57
2019-03-19T17:59:23.282Z,8.60
2019-03-19T18:02:06.172Z,9.77
2019-03-19T18:04:45.451Z,8.00
2019-03-19T18:07:37.571Z,9.37
2019-03-19T18:10:09.610Z,6.87
2019-03-19T18:12:38.996Z,12.70
2019-03-19T18:15:10.656Z,14.23
2019-03-19T18:17:40.020Z,8.20
2019-03-19T18:20:12.317Z,8.97
2019-03-19T18:22:41.817Z,11.47
2019-03-19T18:25:13.154Z,10.67
2019-03-19T18:27:44.159Z,16.20
2019-03-19T18:30:21.207Z,11.03
2019-03-19T18:32:50.532Z,10.97
2019-03-19T18:35:19.906Z,13.60
2019-03-19T18:37:49.343Z,15.70
2019-03-19T18:40:19.566Z,13.70
2019-03-19T18:42:48.862Z,14.93
2019-03-19T18:45:21.871Z,16.33
2019-03-19T18:47:57.826Z,15.47
2019-03-19T18:50:27.547Z,14.83
2019-03-19T18:52:56.902Z,12.50
2019-03-19T18:55:26.220Z,12.47
2019-03-19T18:57:55.528Z,11.20
2019-03-19T19:00:25.011Z,13.50
2019-03-19T19:03:13.679Z,13.30
2019-03-19T19:08:27.858Z,12.60
2019-03-19T19:11:05.106Z,10.23
2019-03-19T19:13:40.993Z,20.40
2019-03-19T19:16:13.198Z,31.07
2019-03-19T19:18:50.334Z,16.90
2019-03-19T19:21:43.946Z,21.23
2019-03-19T19:24:45.966Z,15.80
2019-03-19T19:30:53.448Z,17.70
2019-03-19T19:45:43.371Z,23.17
2019-03-19T19:48:16.719Z,20.60
2019-03-19T19:54:43.721Z,19.23
2019-03-19T19:57:15.642Z,22.17
2019-03-19T19:59:46.490Z,18.13
2019-03-19T20:02:42.942Z,21.43
2019-03-19T20:05:12.522Z,17.47
2019-03-19T20:07:47.984Z,20.13
2019-03-19T20:10:40.955Z,19.93
2019-03-19T20:13:19.499Z,16.03
2019-03-19T20:15:50.369Z,25.03
2019-03-19T20:18:19.680Z,17.90
2019-03-19T20:20:57.781Z,18.50
2019-03-19T20:23:31.329Z,23.00
2019-03-19T20:26:06.107Z,25.73
2019-03-19T20:32:13.258Z,15.17
2019-03-19T20:39:11.202Z,18.03
2019-03-19T20:41:28.803Z,16.23
2019-03-19T20:47:39.726Z,22.77
2019-03-19T20:53:22.702Z,19.17
2019-03-19T20:59:19.125Z,21.03
2019-03-19T21:01:49.536Z,23.90
2019-03-19T21:04:31.825Z,16.90
2019-03-19T21:07:10.983Z,17.63
2019-03-19T21:09:43.535Z,23.97
2019-03-19T21:12:13.245Z,23.20
2019-03-19T21:14:44.197Z,19.80
2019-03-19T21:17:13.545Z,20.83
2019-03-19T21:19:42.847Z,17.37
2019-03-19T21:22:12.170Z,20.30
2019-03-19T21:24:41.492Z,17.27
2019-03-19T21:27:10.809Z,20.67
2019-03-19T21:29:40.128Z,19.87
2019-03-19T21:32:09.447Z,18.40
2019-03-19T21:34:38.763Z,17.90
2019-03-19T21:37:08.116Z,19.73
2019-03-19T21:39:41.245Z,19.30
2019-03-19T21:42:12.159Z,16.70
2019-03-19T21:44:53.350Z,17.27
2019-03-19T21:47:29.030Z,15.77
2019-03-19T21:50:01.613Z,17.90
2019-03-19T21:52:31.007Z,17.87
2019-03-19T21:55:00.471Z,19.60
2019-03-19T21:57:32.343Z,16.60
2019-03-19T22:00:04.743Z,17.20
2019-03-19T22:02:37.082Z,19.80
2019-03-19T22:05:07.328Z,14.80
2019-03-19T22:07:36.636Z,13.00
2019-03-19T22:10:11.170Z,20.37
2019-03-19T22:12:40.552Z,16.33
2019-03-19T22:15:13.754Z,12.63
2019-03-19T22:17:43.070Z,16.30
2019-03-19T22:20:13.988Z,17.87
2019-03-19T22:22:43.301Z,15.67
2019-03-19T22:25:14.045Z,15.50
2019-03-19T22:27:44.500Z,16.10
2019-03-19T22:30:18.582Z,15.13
2019-03-19T22:32:47.952Z,18.07
2019-03-19T22:35:17.261Z,16.03
2019-03-19T22:37:47.339Z,14.43
2019-03-19T22:40:17.675Z,17.53
2019-03-19T22:42:47.160Z,15.60
2019-03-19T22:45:18.383Z,16.13
2019-03-19T22:47:48.107Z,17.03
2019-03-19T22:50:18.369Z,13.80
2019-03-19T22:52:47.819Z,16.63
2019-03-19T22:55:28.078Z,14.27
2019-03-19T22:57:48.136Z,18.97
2019-03-19T23:00:37.286Z,12.10
2019-03-19T23:03:09.279Z,14.83
2019-03-19T23:05:39.625Z,16.57
2019-03-19T23:08:09.005Z,15.77
2019-03-19T23:10:38.313Z,16.77
2019-03-19T23:13:07.627Z,14.50
2019-03-19T23:15:36.932Z,14.27
2019-03-19T23:18:06.253Z,19.77
2019-03-19T23:20:35.620Z,13.07
2019-03-19T23:23:05.000Z,13.97
2019-03-19T23:25:35.375Z,21.00
2019-03-19T23:28:04.818Z,19.27
2019-03-19T23:30:34.236Z,20.87
2019-03-19T23:33:03.638Z,19.57
2019-03-19T23:35:32.958Z,15.20
2019-03-19T23:38:02.352Z,18.07
2019-03-19T23:40:31.655Z,15.73
2019-03-19T23:43:00.979Z,18.60
2019-03-19T23:45:31.356Z,30.53
2019-03-19T23:48:00.676Z,23.13
2019-03-19T23:50:29.992Z,22.50
2019-03-19T23:52:59.312Z,26.37
2019-03-19T23:55:28.620Z,28.67
2019-03-19T23:57:58.024Z,23.57
